<?xml version="1.0" encoding="UTF-8" standalone="no" ?>
<gpx xmlns="http://www.topografix.com/GPX/1/1" xmlns:xsi="http://www.w3.org/2001/XMLSchema-instance" xsi:schemaLocation="http://www.topografix.com/GPX/1/1 http://www.topografix.com/GPX/1/1/gpx.xsd" version="1.1" creator="VisuGPX - https://www.visugpx.com">
  <metadata>
    <name>Randonnée Plomb du Cantal</name>
    <desc><![CDATA[Randonnée plomb du Cantal.]]></desc>
  </metadata>
  <trk>
    <name><![CDATA[2016-07-01 16:54:25]]></name>
    <trkseg>
      <trkpt lat="45.05631" lon="2.78776">
        <ele>1437.72</ele>
        <time>2016-07-01T08:47:12Z</time>
      </trkpt>
      <trkpt lat="45.05621" lon="2.78712">
        <ele>1440.47</ele>
        <time>2016-07-01T08:47:54Z</time>
      </trkpt>
      <trkpt lat="45.0565" lon="2.78685">
        <ele>1445.27</ele>
        <time>2016-07-01T08:48:34Z</time>
      </trkpt>
      <trkpt lat="45.05693" lon="2.78692">
        <ele>1448.91</ele>
        <time>2016-07-01T08:49:14Z</time>
      </trkpt>
      <trkpt lat="45.0572" lon="2.78648">
        <ele>1454.52</ele>
        <time>2016-07-01T08:50:10Z</time>
      </trkpt>
      <trkpt lat="45.05686" lon="2.78602">
        <ele>1461.28</ele>
        <time>2016-07-01T08:50:51Z</time>
      </trkpt>
      <trkpt lat="45.05664" lon="2.78545">
        <ele>1467.2</ele>
        <time>2016-07-01T08:51:32Z</time>
      </trkpt>
      <trkpt lat="45.05663" lon="2.78483">
        <ele>1471.14</ele>
        <time>2016-07-01T08:52:14Z</time>
      </trkpt>
      <trkpt lat="45.05668" lon="2.7842">
        <ele>1477.73</ele>
        <time>2016-07-01T08:52:56Z</time>
      </trkpt>
      <trkpt lat="45.05681" lon="2.7836">
        <ele>1482.63</ele>
        <time>2016-07-01T08:53:37Z</time>
      </trkpt>
      <trkpt lat="45.05689" lon="2.78298">
        <ele>1487.48</ele>
        <time>2016-07-01T08:54:18Z</time>
      </trkpt>
      <trkpt lat="45.05696" lon="2.78236">
        <ele>1492.03</ele>
        <time>2016-07-01T08:54:57Z</time>
      </trkpt>
      <trkpt lat="45.05723" lon="2.78187">
        <ele>1494.92</ele>
        <time>2016-07-01T08:55:38Z</time>
      </trkpt>
      <trkpt lat="45.05738" lon="2.78126">
        <ele>1498.7</ele>
        <time>2016-07-01T08:56:20Z</time>
      </trkpt>
      <trkpt lat="45.05753" lon="2.78066">
        <ele>1501.95</ele>
        <time>2016-07-01T08:57:00Z</time>
      </trkpt>
      <trkpt lat="45.05784" lon="2.78024">
        <ele>1505.71</ele>
        <time>2016-07-01T08:57:40Z</time>
      </trkpt>
      <trkpt lat="45.05818" lon="2.77982">
        <ele>1508.06</ele>
        <time>2016-07-01T08:58:27Z</time>
      </trkpt>
      <trkpt lat="45.05858" lon="2.77955">
        <ele>1511.16</ele>
        <time>2016-07-01T08:59:17Z</time>
      </trkpt>
      <trkpt lat="45.05895" lon="2.77921">
        <ele>1515.72</ele>
        <time>2016-07-01T08:59:59Z</time>
      </trkpt>
      <trkpt lat="45.05915" lon="2.77884">
        <ele>1517.77</ele>
        <time>2016-07-01T09:01:25Z</time>
      </trkpt>
      <trkpt lat="45.05944" lon="2.77835">
        <ele>1520.71</ele>
        <time>2016-07-01T09:02:14Z</time>
      </trkpt>
      <trkpt lat="45.05975" lon="2.77842">
        <ele>1527.41</ele>
        <time>2016-07-01T09:03:35Z</time>
      </trkpt>
      <trkpt lat="45.05993" lon="2.77864">
        <ele>1528.81</ele>
        <time>2016-07-01T09:09:59Z</time>
      </trkpt>
      <trkpt lat="45.06009" lon="2.77839">
        <ele>1532.06</ele>
        <time>2016-07-01T09:19:13Z</time>
      </trkpt>
      <trkpt lat="45.06022" lon="2.77805">
        <ele>1536.11</ele>
        <time>2016-07-01T09:20:19Z</time>
      </trkpt>
      <trkpt lat="45.06047" lon="2.77854">
        <ele>1538.5</ele>
        <time>2016-07-01T09:21:12Z</time>
      </trkpt>
      <trkpt lat="45.06082" lon="2.77897">
        <ele>1539.64</ele>
        <time>2016-07-01T09:21:46Z</time>
      </trkpt>
      <trkpt lat="45.06112" lon="2.7794">
        <ele>1542.92</ele>
        <time>2016-07-01T09:22:54Z</time>
      </trkpt>
      <trkpt lat="45.0614" lon="2.77985">
        <ele>1547.77</ele>
        <time>2016-07-01T09:23:38Z</time>
      </trkpt>
      <trkpt lat="45.06176" lon="2.7795">
        <ele>1552.58</ele>
        <time>2016-07-01T09:24:24Z</time>
      </trkpt>
      <trkpt lat="45.06204" lon="2.77898">
        <ele>1556.55</ele>
        <time>2016-07-01T09:25:06Z</time>
      </trkpt>
      <trkpt lat="45.06234" lon="2.77903">
        <ele>1561.49</ele>
        <time>2016-07-01T09:25:58Z</time>
      </trkpt>
      <trkpt lat="45.06266" lon="2.77944">
        <ele>1565.41</ele>
        <time>2016-07-01T09:26:41Z</time>
      </trkpt>
      <trkpt lat="45.06288" lon="2.77997">
        <ele>1568.25</ele>
        <time>2016-07-01T09:27:18Z</time>
      </trkpt>
      <trkpt lat="45.06329" lon="2.78001">
        <ele>1573.96</ele>
        <time>2016-07-01T09:27:57Z</time>
      </trkpt>
      <trkpt lat="45.06367" lon="2.77972">
        <ele>1579.27</ele>
        <time>2016-07-01T09:28:46Z</time>
      </trkpt>
      <trkpt lat="45.06398" lon="2.77925">
        <ele>1584.65</ele>
        <time>2016-07-01T09:29:24Z</time>
      </trkpt>
      <trkpt lat="45.06431" lon="2.77918">
        <ele>1588.88</ele>
        <time>2016-07-01T09:30:02Z</time>
      </trkpt>
      <trkpt lat="45.06459" lon="2.77874">
        <ele>1593.95</ele>
        <time>2016-07-01T09:30:43Z</time>
      </trkpt>
      <trkpt lat="45.06426" lon="2.77827">
        <ele>1598.62</ele>
        <time>2016-07-01T09:31:23Z</time>
      </trkpt>
      <trkpt lat="45.0641" lon="2.7777">
        <ele>1603.91</ele>
        <time>2016-07-01T09:32:14Z</time>
      </trkpt>
      <trkpt lat="45.06398" lon="2.7771">
        <ele>1606.18</ele>
        <time>2016-07-01T09:32:54Z</time>
      </trkpt>
      <trkpt lat="45.06393" lon="2.77646">
        <ele>1612.85</ele>
        <time>2016-07-01T09:33:35Z</time>
      </trkpt>
      <trkpt lat="45.06396" lon="2.77586">
        <ele>1619.39</ele>
        <time>2016-07-01T09:34:18Z</time>
      </trkpt>
      <trkpt lat="45.0643" lon="2.77615">
        <ele>1623.98</ele>
        <time>2016-07-01T09:34:55Z</time>
      </trkpt>
      <trkpt lat="45.06462" lon="2.77655">
        <ele>1628</ele>
        <time>2016-07-01T09:35:34Z</time>
      </trkpt>
      <trkpt lat="45.06498" lon="2.77684">
        <ele>1631.97</ele>
        <time>2016-07-01T09:36:16Z</time>
      </trkpt>
      <trkpt lat="45.06526" lon="2.77672">
        <ele>1636.98</ele>
        <time>2016-07-01T09:37:22Z</time>
      </trkpt>
      <trkpt lat="45.06525" lon="2.77609">
        <ele>1641.32</ele>
        <time>2016-07-01T09:38:02Z</time>
      </trkpt>
      <trkpt lat="45.06514" lon="2.77568">
        <ele>1644.62</ele>
        <time>2016-07-01T09:40:17Z</time>
      </trkpt>
      <trkpt lat="45.06513" lon="2.77554">
        <ele>1646.1</ele>
        <time>2016-07-01T09:49:04Z</time>
      </trkpt>
      <trkpt lat="45.06529" lon="2.77493">
        <ele>1651.57</ele>
        <time>2016-07-01T09:50:28Z</time>
      </trkpt>
      <trkpt lat="45.06533" lon="2.77434">
        <ele>1656.08</ele>
        <time>2016-07-01T09:52:51Z</time>
      </trkpt>
      <trkpt lat="45.06542" lon="2.77371">
        <ele>1661.09</ele>
        <time>2016-07-01T09:53:50Z</time>
      </trkpt>
      <trkpt lat="45.06544" lon="2.77306">
        <ele>1668.01</ele>
        <time>2016-07-01T09:54:40Z</time>
      </trkpt>
      <trkpt lat="45.06554" lon="2.77244">
        <ele>1673.1</ele>
        <time>2016-07-01T09:55:26Z</time>
      </trkpt>
      <trkpt lat="45.06561" lon="2.7718">
        <ele>1678.58</ele>
        <time>2016-07-01T09:56:06Z</time>
      </trkpt>
      <trkpt lat="45.06571" lon="2.77118">
        <ele>1684.93</ele>
        <time>2016-07-01T09:56:45Z</time>
      </trkpt>
      <trkpt lat="45.06587" lon="2.77059">
        <ele>1689.54</ele>
        <time>2016-07-01T09:57:28Z</time>
      </trkpt>
      <trkpt lat="45.06599" lon="2.76997">
        <ele>1695.06</ele>
        <time>2016-07-01T09:58:06Z</time>
      </trkpt>
      <trkpt lat="45.06606" lon="2.76933">
        <ele>1700.24</ele>
        <time>2016-07-01T09:58:44Z</time>
      </trkpt>
      <trkpt lat="45.06609" lon="2.76869">
        <ele>1704.22</ele>
        <time>2016-07-01T09:59:22Z</time>
      </trkpt>
      <trkpt lat="45.0661" lon="2.76806">
        <ele>1708.71</ele>
        <time>2016-07-01T10:00:00Z</time>
      </trkpt>
      <trkpt lat="45.06611" lon="2.76744">
        <ele>1716.94</ele>
        <time>2016-07-01T10:00:40Z</time>
      </trkpt>
      <trkpt lat="45.06604" lon="2.7668">
        <ele>1724.06</ele>
        <time>2016-07-01T10:01:20Z</time>
      </trkpt>
      <trkpt lat="45.06586" lon="2.76622">
        <ele>1729.42</ele>
        <time>2016-07-01T10:01:58Z</time>
      </trkpt>
      <trkpt lat="45.06562" lon="2.76568">
        <ele>1735.07</ele>
        <time>2016-07-01T10:02:38Z</time>
      </trkpt>
      <trkpt lat="45.06537" lon="2.76516">
        <ele>1739.63</ele>
        <time>2016-07-01T10:03:17Z</time>
      </trkpt>
      <trkpt lat="45.06516" lon="2.7647">
        <ele>1744.24</ele>
        <time>2016-07-01T10:04:11Z</time>
      </trkpt>
      <trkpt lat="45.06484" lon="2.76423">
        <ele>1747.85</ele>
        <time>2016-07-01T10:04:44Z</time>
      </trkpt>
      <trkpt lat="45.06452" lon="2.76377">
        <ele>1751.74</ele>
        <time>2016-07-01T10:05:21Z</time>
      </trkpt>
      <trkpt lat="45.06417" lon="2.76336">
        <ele>1757.81</ele>
        <time>2016-07-01T10:06:00Z</time>
      </trkpt>
      <trkpt lat="45.06384" lon="2.76293">
        <ele>1761.3</ele>
        <time>2016-07-01T10:06:40Z</time>
      </trkpt>
      <trkpt lat="45.06387" lon="2.76257">
        <ele>1768.41</ele>
        <time>2016-07-01T10:07:25Z</time>
      </trkpt>
      <trkpt lat="45.06369" lon="2.76203">
        <ele>1776.97</ele>
        <time>2016-07-01T10:08:09Z</time>
      </trkpt>
      <trkpt lat="45.06345" lon="2.76147">
        <ele>1782.36</ele>
        <time>2016-07-01T10:08:50Z</time>
      </trkpt>
      <trkpt lat="45.0633" lon="2.76124">
        <ele>1785.85</ele>
        <time>2016-07-01T10:10:00Z</time>
      </trkpt>
      <trkpt lat="45.0631" lon="2.76112">
        <ele>1789.07</ele>
        <time>2016-07-01T10:12:57Z</time>
      </trkpt>
      <trkpt lat="45.06264" lon="2.76129">
        <ele>1790.04</ele>
        <time>2016-07-01T10:13:38Z</time>
      </trkpt>
      <trkpt lat="45.06219" lon="2.76129">
        <ele>1792.71</ele>
        <time>2016-07-01T10:14:10Z</time>
      </trkpt>
      <trkpt lat="45.06177" lon="2.76133">
        <ele>1794.6</ele>
        <time>2016-07-01T10:14:46Z</time>
      </trkpt>
      <trkpt lat="45.06133" lon="2.76155">
        <ele>1799.23</ele>
        <time>2016-07-01T10:15:22Z</time>
      </trkpt>
      <trkpt lat="45.06088" lon="2.76166">
        <ele>1803.55</ele>
        <time>2016-07-01T10:15:58Z</time>
      </trkpt>
      <trkpt lat="45.06044" lon="2.76176">
        <ele>1806</ele>
        <time>2016-07-01T10:16:35Z</time>
      </trkpt>
      <trkpt lat="45.06" lon="2.76177">
        <ele>1813.07</ele>
        <time>2016-07-01T10:17:19Z</time>
      </trkpt>
      <trkpt lat="45.05954" lon="2.76175">
        <ele>1825.02</ele>
        <time>2016-07-01T10:18:28Z</time>
      </trkpt>
      <trkpt lat="45.05915" lon="2.76189">
        <ele>1835.07</ele>
        <time>2016-07-01T10:19:35Z</time>
      </trkpt>
      <trkpt lat="45.05891" lon="2.76143">
        <ele>1846.74</ele>
        <time>2016-07-01T10:20:43Z</time>
      </trkpt>
      <trkpt lat="45.05904" lon="2.76132">
        <ele>1849.04</ele>
        <time>2016-07-01T10:23:22Z</time>
      </trkpt>
      <trkpt lat="45.05885" lon="2.76134">
        <ele>1850.39</ele>
        <time>2016-07-01T10:26:35Z</time>
      </trkpt>
      <trkpt lat="45.05894" lon="2.76143">
        <ele>1850.39</ele>
        <time>2016-07-01T10:30:06Z</time>
      </trkpt>
      <trkpt lat="45.0589" lon="2.76141">
        <ele>1851.53</ele>
        <time>2016-07-01T10:37:20Z</time>
      </trkpt>
      <trkpt lat="45.05907" lon="2.76129">
        <ele>1851.04</ele>
        <time>2016-07-01T10:41:31Z</time>
      </trkpt>
      <trkpt lat="45.05899" lon="2.7614">
        <ele>1854.03</ele>
        <time>2016-07-01T10:50:12Z</time>
      </trkpt>
      <trkpt lat="45.05898" lon="2.7617">
        <ele>1849.12</ele>
        <time>2016-07-01T10:53:09Z</time>
      </trkpt>
      <trkpt lat="45.05938" lon="2.76183">
        <ele>1836.57</ele>
        <time>2016-07-01T10:54:41Z</time>
      </trkpt>
      <trkpt lat="45.05985" lon="2.76173">
        <ele>1823.97</ele>
        <time>2016-07-01T10:55:58Z</time>
      </trkpt>
      <trkpt lat="45.06015" lon="2.76124">
        <ele>1819.74</ele>
        <time>2016-07-01T10:56:46Z</time>
      </trkpt>
      <trkpt lat="45.06032" lon="2.76112">
        <ele>1818.9</ele>
        <time>2016-07-01T10:58:35Z</time>
      </trkpt>
      <trkpt lat="45.06075" lon="2.76107">
        <ele>1815.91</ele>
        <time>2016-07-01T11:00:55Z</time>
      </trkpt>
      <trkpt lat="45.06121" lon="2.76093">
        <ele>1813.27</ele>
        <time>2016-07-01T11:01:41Z</time>
      </trkpt>
      <trkpt lat="45.06166" lon="2.76087">
        <ele>1809.19</ele>
        <time>2016-07-01T11:02:23Z</time>
      </trkpt>
      <trkpt lat="45.06208" lon="2.76114">
        <ele>1805.05</ele>
        <time>2016-07-01T11:03:11Z</time>
      </trkpt>
      <trkpt lat="45.06207" lon="2.7613">
        <ele>1804.46</ele>
        <time>2016-07-01T11:08:35Z</time>
      </trkpt>
      <trkpt lat="45.06211" lon="2.76112">
        <ele>1802.83</ele>
        <time>2016-07-01T11:21:57Z</time>
      </trkpt>
      <trkpt lat="45.06204" lon="2.7612">
        <ele>1803.49</ele>
        <time>2016-07-01T11:30:21Z</time>
      </trkpt>
      <trkpt lat="45.06211" lon="2.76128">
        <ele>1802.25</ele>
        <time>2016-07-01T11:32:55Z</time>
      </trkpt>
      <trkpt lat="45.06211" lon="2.76112">
        <ele>1803.56</ele>
        <time>2016-07-01T11:46:42Z</time>
      </trkpt>
      <trkpt lat="45.06196" lon="2.76119">
        <ele>1804.68</ele>
        <time>2016-07-01T11:49:58Z</time>
      </trkpt>
      <trkpt lat="45.06212" lon="2.76117">
        <ele>1804.19</ele>
        <time>2016-07-01T11:52:46Z</time>
      </trkpt>
      <trkpt lat="45.06229" lon="2.76122">
        <ele>1802.25</ele>
        <time>2016-07-01T11:59:12Z</time>
      </trkpt>
      <trkpt lat="45.06274" lon="2.76125">
        <ele>1799.52</ele>
        <time>2016-07-01T12:00:04Z</time>
      </trkpt>
      <trkpt lat="45.06317" lon="2.76111">
        <ele>1797.27</ele>
        <time>2016-07-01T12:00:49Z</time>
      </trkpt>
      <trkpt lat="45.06322" lon="2.76109">
        <ele>1798.03</ele>
        <time>2016-07-01T12:03:15Z</time>
      </trkpt>
      <trkpt lat="45.06327" lon="2.7611">
        <ele>1795.93</ele>
        <time>2016-07-01T12:07:21Z</time>
      </trkpt>
      <trkpt lat="45.06362" lon="2.76157">
        <ele>1791.9</ele>
        <time>2016-07-01T12:08:04Z</time>
      </trkpt>
      <trkpt lat="45.06378" lon="2.76211">
        <ele>1785.76</ele>
        <time>2016-07-01T12:09:06Z</time>
      </trkpt>
      <trkpt lat="45.0642" lon="2.76237">
        <ele>1779.81</ele>
        <time>2016-07-01T12:09:52Z</time>
      </trkpt>
      <trkpt lat="45.06462" lon="2.76265">
        <ele>1777.84</ele>
        <time>2016-07-01T12:10:32Z</time>
      </trkpt>
      <trkpt lat="45.06502" lon="2.76293">
        <ele>1776.41</ele>
        <time>2016-07-01T12:11:06Z</time>
      </trkpt>
      <trkpt lat="45.06535" lon="2.76338">
        <ele>1777.29</ele>
        <time>2016-07-01T12:11:43Z</time>
      </trkpt>
      <trkpt lat="45.06562" lon="2.76388">
        <ele>1777.62</ele>
        <time>2016-07-01T12:12:18Z</time>
      </trkpt>
      <trkpt lat="45.06588" lon="2.7644">
        <ele>1775.07</ele>
        <time>2016-07-01T12:12:56Z</time>
      </trkpt>
      <trkpt lat="45.06622" lon="2.76484">
        <ele>1768.67</ele>
        <time>2016-07-01T12:13:35Z</time>
      </trkpt>
      <trkpt lat="45.06641" lon="2.7654">
        <ele>1762.08</ele>
        <time>2016-07-01T12:14:16Z</time>
      </trkpt>
      <trkpt lat="45.06652" lon="2.76594">
        <ele>1754.38</ele>
        <time>2016-07-01T12:15:04Z</time>
      </trkpt>
      <trkpt lat="45.06677" lon="2.76645">
        <ele>1753.61</ele>
        <time>2016-07-01T12:15:43Z</time>
      </trkpt>
      <trkpt lat="45.0669" lon="2.76703">
        <ele>1755.97</ele>
        <time>2016-07-01T12:16:25Z</time>
      </trkpt>
      <trkpt lat="45.06713" lon="2.76754">
        <ele>1761.31</ele>
        <time>2016-07-01T12:17:11Z</time>
      </trkpt>
      <trkpt lat="45.06755" lon="2.76771">
        <ele>1765.48</ele>
        <time>2016-07-01T12:17:57Z</time>
      </trkpt>
      <trkpt lat="45.06795" lon="2.7681">
        <ele>1772.41</ele>
        <time>2016-07-01T12:18:51Z</time>
      </trkpt>
      <trkpt lat="45.06834" lon="2.76843">
        <ele>1778.63</ele>
        <time>2016-07-01T12:19:35Z</time>
      </trkpt>
      <trkpt lat="45.06873" lon="2.76879">
        <ele>1788.91</ele>
        <time>2016-07-01T12:20:28Z</time>
      </trkpt>
      <trkpt lat="45.06912" lon="2.7691">
        <ele>1795.94</ele>
        <time>2016-07-01T12:21:19Z</time>
      </trkpt>
      <trkpt lat="45.06952" lon="2.76945">
        <ele>1800.87</ele>
        <time>2016-07-01T12:22:04Z</time>
      </trkpt>
      <trkpt lat="45.06991" lon="2.76929">
        <ele>1811.64</ele>
        <time>2016-07-01T12:22:59Z</time>
      </trkpt>
      <trkpt lat="45.07024" lon="2.76892">
        <ele>1815.12</ele>
        <time>2016-07-01T12:24:31Z</time>
      </trkpt>
      <trkpt lat="45.07049" lon="2.76886">
        <ele>1814.18</ele>
        <time>2016-07-01T12:30:29Z</time>
      </trkpt>
      <trkpt lat="45.07074" lon="2.76885">
        <ele>1806.79</ele>
        <time>2016-07-01T12:33:06Z</time>
      </trkpt>
      <trkpt lat="45.07068" lon="2.76885">
        <ele>1807.92</ele>
        <time>2016-07-01T12:36:40Z</time>
      </trkpt>
      <trkpt lat="45.07085" lon="2.76877">
        <ele>1803.18</ele>
        <time>2016-07-01T12:39:13Z</time>
      </trkpt>
      <trkpt lat="45.07116" lon="2.76848">
        <ele>1804.24</ele>
        <time>2016-07-01T12:44:22Z</time>
      </trkpt>
      <trkpt lat="45.07152" lon="2.76832">
        <ele>1791.47</ele>
        <time>2016-07-01T12:47:08Z</time>
      </trkpt>
      <trkpt lat="45.07194" lon="2.7681">
        <ele>1793.68</ele>
        <time>2016-07-01T12:48:04Z</time>
      </trkpt>
      <trkpt lat="45.07224" lon="2.76811">
        <ele>1788.81</ele>
        <time>2016-07-01T12:50:23Z</time>
      </trkpt>
      <trkpt lat="45.07268" lon="2.7684">
        <ele>1784.35</ele>
        <time>2016-07-01T12:51:29Z</time>
      </trkpt>
      <trkpt lat="45.07293" lon="2.76847">
        <ele>1770.4</ele>
        <time>2016-07-01T12:53:34Z</time>
      </trkpt>
      <trkpt lat="45.07329" lon="2.76861">
        <ele>1755.37</ele>
        <time>2016-07-01T12:56:06Z</time>
      </trkpt>
      <trkpt lat="45.07371" lon="2.76872">
        <ele>1746.04</ele>
        <time>2016-07-01T12:57:36Z</time>
      </trkpt>
      <trkpt lat="45.07398" lon="2.7688">
        <ele>1736.87</ele>
        <time>2016-07-01T12:59:28Z</time>
      </trkpt>
      <trkpt lat="45.07395" lon="2.76881">
        <ele>1736.18</ele>
        <time>2016-07-01T13:03:50Z</time>
      </trkpt>
      <trkpt lat="45.07396" lon="2.76878">
        <ele>1734.15</ele>
        <time>2016-07-01T13:07:22Z</time>
      </trkpt>
      <trkpt lat="45.07399" lon="2.76881">
        <ele>1734.55</ele>
        <time>2016-07-01T13:11:16Z</time>
      </trkpt>
      <trkpt lat="45.0744" lon="2.76912">
        <ele>1728.35</ele>
        <time>2016-07-01T13:12:27Z</time>
      </trkpt>
      <trkpt lat="45.07486" lon="2.76934">
        <ele>1720.76</ele>
        <time>2016-07-01T13:13:45Z</time>
      </trkpt>
      <trkpt lat="45.07532" lon="2.7695">
        <ele>1719.74</ele>
        <time>2016-07-01T13:14:57Z</time>
      </trkpt>
      <trkpt lat="45.07576" lon="2.76946">
        <ele>1722.01</ele>
        <time>2016-07-01T13:15:43Z</time>
      </trkpt>
      <trkpt lat="45.07611" lon="2.76987">
        <ele>1716.51</ele>
        <time>2016-07-01T13:16:44Z</time>
      </trkpt>
      <trkpt lat="45.07648" lon="2.77021">
        <ele>1705.99</ele>
        <time>2016-07-01T13:17:46Z</time>
      </trkpt>
      <trkpt lat="45.07687" lon="2.77034">
        <ele>1694.97</ele>
        <time>2016-07-01T13:18:58Z</time>
      </trkpt>
      <trkpt lat="45.07728" lon="2.77036">
        <ele>1673.98</ele>
        <time>2016-07-01T13:21:10Z</time>
      </trkpt>
      <trkpt lat="45.07748" lon="2.77047">
        <ele>1665.54</ele>
        <time>2016-07-01T13:25:35Z</time>
      </trkpt>
      <trkpt lat="45.07741" lon="2.76982">
        <ele>1666.7</ele>
        <time>2016-07-01T13:26:12Z</time>
      </trkpt>
      <trkpt lat="45.07711" lon="2.76941">
        <ele>1666.51</ele>
        <time>2016-07-01T13:27:11Z</time>
      </trkpt>
      <trkpt lat="45.07689" lon="2.76889">
        <ele>1664.72</ele>
        <time>2016-07-01T13:27:43Z</time>
      </trkpt>
      <trkpt lat="45.07668" lon="2.76833">
        <ele>1665.11</ele>
        <time>2016-07-01T13:28:15Z</time>
      </trkpt>
      <trkpt lat="45.07656" lon="2.76774">
        <ele>1664.35</ele>
        <time>2016-07-01T13:28:48Z</time>
      </trkpt>
      <trkpt lat="45.07678" lon="2.7676">
        <ele>1652.38</ele>
        <time>2016-07-01T13:29:40Z</time>
      </trkpt>
      <trkpt lat="45.07696" lon="2.76722">
        <ele>1637.17</ele>
        <time>2016-07-01T13:30:28Z</time>
      </trkpt>
      <trkpt lat="45.07712" lon="2.76684">
        <ele>1624.8</ele>
        <time>2016-07-01T13:34:18Z</time>
      </trkpt>
      <trkpt lat="45.07745" lon="2.76648">
        <ele>1610.86</ele>
        <time>2016-07-01T13:35:05Z</time>
      </trkpt>
      <trkpt lat="45.0777" lon="2.76636">
        <ele>1598.04</ele>
        <time>2016-07-01T13:35:46Z</time>
      </trkpt>
      <trkpt lat="45.07792" lon="2.7661">
        <ele>1582.41</ele>
        <time>2016-07-01T13:36:41Z</time>
      </trkpt>
      <trkpt lat="45.07811" lon="2.76583">
        <ele>1570.05</ele>
        <time>2016-07-01T13:37:23Z</time>
      </trkpt>
      <trkpt lat="45.07853" lon="2.76565">
        <ele>1556.15</ele>
        <time>2016-07-01T13:38:37Z</time>
      </trkpt>
      <trkpt lat="45.07889" lon="2.76531">
        <ele>1543.33</ele>
        <time>2016-07-01T13:39:31Z</time>
      </trkpt>
      <trkpt lat="45.07919" lon="2.7649">
        <ele>1530.74</ele>
        <time>2016-07-01T13:45:07Z</time>
      </trkpt>
      <trkpt lat="45.0795" lon="2.76443">
        <ele>1521.93</ele>
        <time>2016-07-01T13:45:42Z</time>
      </trkpt>
      <trkpt lat="45.07983" lon="2.764">
        <ele>1513.72</ele>
        <time>2016-07-01T13:46:21Z</time>
      </trkpt>
      <trkpt lat="45.08021" lon="2.76369">
        <ele>1499.78</ele>
        <time>2016-07-01T13:47:08Z</time>
      </trkpt>
      <trkpt lat="45.08059" lon="2.76339">
        <ele>1492.12</ele>
        <time>2016-07-01T13:47:42Z</time>
      </trkpt>
      <trkpt lat="45.08098" lon="2.76307">
        <ele>1488.56</ele>
        <time>2016-07-01T13:48:25Z</time>
      </trkpt>
      <trkpt lat="45.08115" lon="2.76286">
        <ele>1486.79</ele>
        <time>2016-07-01T13:51:30Z</time>
      </trkpt>
      <trkpt lat="45.08146" lon="2.76265">
        <ele>1485.93</ele>
        <time>2016-07-01T13:53:45Z</time>
      </trkpt>
      <trkpt lat="45.08164" lon="2.76209">
        <ele>1482.44</ele>
        <time>2016-07-01T13:54:45Z</time>
      </trkpt>
      <trkpt lat="45.08181" lon="2.76173">
        <ele>1482.86</ele>
        <time>2016-07-01T13:57:50Z</time>
      </trkpt>
      <trkpt lat="45.08223" lon="2.76136">
        <ele>1464.61</ele>
        <time>2016-07-01T13:59:19Z</time>
      </trkpt>
      <trkpt lat="45.08252" lon="2.76098">
        <ele>1456.19</ele>
        <time>2016-07-01T14:00:49Z</time>
      </trkpt>
      <trkpt lat="45.08269" lon="2.76079">
        <ele>1452.98</ele>
        <time>2016-07-01T14:04:40Z</time>
      </trkpt>
      <trkpt lat="45.08327" lon="2.76051">
        <ele>1448.04</ele>
        <time>2016-07-01T14:05:49Z</time>
      </trkpt>
      <trkpt lat="45.08396" lon="2.76001">
        <ele>1453.67</ele>
        <time>2016-07-01T14:07:01Z</time>
      </trkpt>
      <trkpt lat="45.08447" lon="2.75936">
        <ele>1462.86</ele>
        <time>2016-07-01T14:08:24Z</time>
      </trkpt>
      <trkpt lat="45.08508" lon="2.75912">
        <ele>1462.35</ele>
        <time>2016-07-01T14:09:47Z</time>
      </trkpt>
      <trkpt lat="45.0856" lon="2.7589">
        <ele>1463.61</ele>
        <time>2016-07-01T14:11:08Z</time>
      </trkpt>
      <trkpt lat="45.08588" lon="2.7587">
        <ele>1456.56</ele>
        <time>2016-07-01T14:12:55Z</time>
      </trkpt>
      <trkpt lat="45.08567" lon="2.7582">
        <ele>1442.46</ele>
        <time>2016-07-01T14:14:24Z</time>
      </trkpt>
      <trkpt lat="45.08504" lon="2.75849">
        <ele>1442.41</ele>
        <time>2016-07-01T14:15:33Z</time>
      </trkpt>
      <trkpt lat="45.0845" lon="2.75853">
        <ele>1442.01</ele>
        <time>2016-07-01T14:16:25Z</time>
      </trkpt>
      <trkpt lat="45.08399" lon="2.75886">
        <ele>1435.04</ele>
        <time>2016-07-01T14:17:33Z</time>
      </trkpt>
      <trkpt lat="45.08352" lon="2.75935">
        <ele>1423.35</ele>
        <time>2016-07-01T14:18:28Z</time>
      </trkpt>
      <trkpt lat="45.08286" lon="2.75978">
        <ele>1413.39</ele>
        <time>2016-07-01T14:19:28Z</time>
      </trkpt>
      <trkpt lat="45.08228" lon="2.75977">
        <ele>1403.71</ele>
        <time>2016-07-01T14:20:17Z</time>
      </trkpt>
      <trkpt lat="45.08177" lon="2.75964">
        <ele>1392.26</ele>
        <time>2016-07-01T14:21:46Z</time>
      </trkpt>
      <trkpt lat="45.08142" lon="2.75932">
        <ele>1382.7</ele>
        <time>2016-07-01T14:23:41Z</time>
      </trkpt>
      <trkpt lat="45.08184" lon="2.75897">
        <ele>1376.9</ele>
        <time>2016-07-01T14:25:22Z</time>
      </trkpt>
      <trkpt lat="45.0824" lon="2.75878">
        <ele>1372.1</ele>
        <time>2016-07-01T14:26:13Z</time>
      </trkpt>
      <trkpt lat="45.08226" lon="2.75864">
        <ele>1363.96</ele>
        <time>2016-07-01T14:27:08Z</time>
      </trkpt>
      <trkpt lat="45.08175" lon="2.7586">
        <ele>1360.19</ele>
        <time>2016-07-01T14:28:03Z</time>
      </trkpt>
      <trkpt lat="45.08106" lon="2.75851">
        <ele>1355.2</ele>
        <time>2016-07-01T14:29:03Z</time>
      </trkpt>
      <trkpt lat="45.08101" lon="2.75807">
        <ele>1341.27</ele>
        <time>2016-07-01T14:30:03Z</time>
      </trkpt>
      <trkpt lat="45.08138" lon="2.75765">
        <ele>1332.93</ele>
        <time>2016-07-01T14:30:41Z</time>
      </trkpt>
      <trkpt lat="45.08185" lon="2.75729">
        <ele>1325.85</ele>
        <time>2016-07-01T14:31:28Z</time>
      </trkpt>
      <trkpt lat="45.08218" lon="2.7567">
        <ele>1315</ele>
        <time>2016-07-01T14:32:16Z</time>
      </trkpt>
      <trkpt lat="45.08227" lon="2.75603">
        <ele>1302.75</ele>
        <time>2016-07-01T14:33:41Z</time>
      </trkpt>
      <trkpt lat="45.08236" lon="2.75525">
        <ele>1290.77</ele>
        <time>2016-07-01T14:34:43Z</time>
      </trkpt>
      <trkpt lat="45.08246" lon="2.75442">
        <ele>1283.36</ele>
        <time>2016-07-01T14:35:36Z</time>
      </trkpt>
      <trkpt lat="45.0825" lon="2.75359">
        <ele>1276.18</ele>
        <time>2016-07-01T14:36:26Z</time>
      </trkpt>
      <trkpt lat="45.08235" lon="2.75287">
        <ele>1266.59</ele>
        <time>2016-07-01T14:37:14Z</time>
      </trkpt>
      <trkpt lat="45.08206" lon="2.75219">
        <ele>1256.05</ele>
        <time>2016-07-01T14:38:05Z</time>
      </trkpt>
      <trkpt lat="45.082" lon="2.75145">
        <ele>1249.31</ele>
        <time>2016-07-01T14:38:49Z</time>
      </trkpt>
      <trkpt lat="45.08206" lon="2.75075">
        <ele>1244.99</ele>
        <time>2016-07-01T14:39:32Z</time>
      </trkpt>
      <trkpt lat="45.08222" lon="2.75018">
        <ele>1240.11</ele>
        <time>2016-07-01T14:40:27Z</time>
      </trkpt>
      <trkpt lat="45.08245" lon="2.74968">
        <ele>1237.13</ele>
        <time>2016-07-01T14:41:03Z</time>
      </trkpt>
      <trkpt lat="45.08301" lon="2.74966">
        <ele>1234.09</ele>
        <time>2016-07-01T14:41:58Z</time>
      </trkpt>
      <trkpt lat="45.08362" lon="2.74965">
        <ele>1228.99</ele>
        <time>2016-07-01T14:42:46Z</time>
      </trkpt>
      <trkpt lat="45.08387" lon="2.74893">
        <ele>1228.02</ele>
        <time>2016-07-01T14:43:32Z</time>
      </trkpt>
      <trkpt lat="45.08386" lon="2.7488">
        <ele>1227.57</ele>
        <time>2016-07-01T14:46:21Z</time>
      </trkpt>
      <trkpt lat="45.08389" lon="2.74883">
        <ele>1227.25</ele>
        <time>2016-07-01T14:49:24Z</time>
      </trkpt>
      <trkpt lat="45.08388" lon="2.74886">
        <ele>1226.78</ele>
        <time>2016-07-01T14:52:02Z</time>
      </trkpt>
    </trkseg>
  </trk>
</gpx>